PWSweather.com
Personal Weather Stations
Station Observations
270882
Flassian, LimouxFR 11300

FlassianLimouxFR 11300

Lat: 43.071798, Lon: 2.217292

Elevation: 165

Station Type: Oregon WMR 200

http://www.meteolimoux.fr

Latest ConditionsUpdated 8:57:14 AM GMT+01:01 Saturday, Apr 21, 2018
Currently Today's Max Today's Min Today's Average
Temperature 61.5°F16.4°C 61.5°F16.4°C 46.4°F8.0°C 51.0°F10.6°C
Dew Point 48.7°F9.3°C 48.7°F9.3°C 38.8°F3.8°C 41.4°F5.2°C
Winds 0.4 mph NNE0.6 kmh NNE 2.2 mph WSW3.5 kmh WSW - 0.2 mph 0.3 kmh
Wind Gusts 2.5 mph4.0 kmh 3.8 mph6.1 kmh - -
Humidity 63% 77% 59% 70%
Pressure 30.10 in1019.3 mb 30.13 in1020.3 mb 30.07 in1018.3 mb -
Hour Temp Dew Point Humidity Winds Wind Gusts Pressure Precip Precip Rate Daily Precip Total
08:57 AM 61.5°F16.4°C 48.7°F9.3°C 63% 0.4 mph NNE0.6 kmh NNE 2.5 mph4.0 kmh 30.10 in1019.3 mb - 0.00 in0.0 mm 0.00 in0.0 mm
08:52 AM 60.8°F16.0°C 48.2°F9.0°C 63% 0.7 mph N1.1 kmh N 1.8 mph2.9 kmh 30.10 in1019.3 mb - 0.00 in0.0 mm 0.00 in0.0 mm
08:47 AM 60.6°F15.9°C 47.5°F8.6°C 62% 0.2 mph NNE0.3 kmh NNE 1.3 mph2.1 kmh 30.10 in1019.3 mb - 0.00 in0.0 mm 0.00 in0.0 mm
08:42 AM 60.8°F16.0°C 48.6°F9.2°C 64% 0.2 mph NE0.3 kmh NE 2.0 mph3.2 kmh 30.10 in1019.3 mb - 0.00 in0.0 mm 0.00 in0.0 mm
08:37 AM 60.3°F15.7°C 48.4°F9.1°C 65% Calm Calm -- 30.10 in1019.3 mb - 0.00 in0.0 mm 0.00 in0.0 mm
08:32 AM 59.2°F15.1°C 47.8°F8.8°C 66% Calm Calm -- 30.10 in1019.3 mb - 0.00 in0.0 mm 0.00 in0.0 mm
08:27 AM 58.5°F14.7°C 47.1°F8.4°C 66% Calm Calm -- 30.10 in1019.3 mb - 0.00 in0.0 mm 0.00 in0.0 mm
08:22 AM 58.1°F14.5°C 46.8°F8.2°C 66% Calm Calm -- 30.10 in1019.3 mb - 0.00 in0.0 mm 0.00 in0.0 mm
08:17 AM 57.7°F14.3°C 47.3°F8.5°C 68% Calm Calm -- 30.10 in1019.3 mb - 0.00 in0.0 mm 0.00 in0.0 mm
08:12 AM 57.4°F14.1°C 46.9°F8.3°C 68% 0.2 mph SSE0.3 kmh SSE 2.0 mph3.2 kmh 30.10 in1019.3 mb - 0.00 in0.0 mm 0.00 in0.0 mm
08:07 AM 56.7°F13.7°C 46.6°F8.1°C 69% 0.2 mph S0.3 kmh S 1.3 mph2.1 kmh 30.10 in1019.3 mb - 0.00 in0.0 mm 0.00 in0.0 mm
08:02 AM 55.8°F13.2°C 46.2°F7.9°C 70% 0.9 mph S1.4 kmh S 2.9 mph4.7 kmh 30.10 in1019.3 mb - 0.00 in0.0 mm 0.00 in0.0 mm
07:57 AM 55.2°F12.9°C 46.0°F7.8°C 71% 0.4 mph S0.6 kmh S 2.2 mph3.5 kmh 30.10 in1019.3 mb - 0.00 in0.0 mm 0.00 in0.0 mm
07:52 AM 54.7°F12.6°C 46.2°F7.9°C 73% 0.7 mph S1.1 kmh S 2.7 mph4.3 kmh 30.10 in1019.3 mb - 0.00 in0.0 mm 0.00 in0.0 mm
07:47 AM 54.3°F12.4°C 46.2°F7.9°C 74% 0.7 mph SW1.1 kmh SW 3.1 mph5.0 kmh 30.10 in1019.3 mb - 0.00 in0.0 mm 0.00 in0.0 mm
07:42 AM 53.6°F12.0°C 45.5°F7.5°C 74% 0.9 mph S1.4 kmh S 2.7 mph4.3 kmh 30.10 in1019.3 mb - 0.00 in0.0 mm 0.00 in0.0 mm
07:37 AM 52.9°F11.6°C 45.1°F7.3°C 75% 1.1 mph SW1.8 kmh SW 3.8 mph6.1 kmh 30.10 in1019.3 mb - 0.00 in0.0 mm 0.00 in0.0 mm
07:32 AM 52.2°F11.2°C 44.4°F6.9°C 75% 1.8 mph WSW2.9 kmh WSW 3.4 mph5.5 kmh 30.10 in1019.3 mb - 0.00 in0.0 mm 0.00 in0.0 mm
07:27 AM 51.6°F10.9°C 44.2°F6.8°C 76% 2.2 mph WSW3.5 kmh WSW 3.6 mph5.8 kmh 30.10 in1019.3 mb - 0.00 in0.0 mm 0.00 in0.0 mm
07:22 AM 51.3°F10.7°C 43.9°F6.6°C 76% 0.9 mph SW1.4 kmh SW 2.7 mph4.3 kmh 30.10 in1019.3 mb - 0.00 in0.0 mm 0.00 in0.0 mm
07:17 AM 50.9°F10.5°C 43.7°F6.5°C 76% 1.3 mph WSW2.1 kmh WSW 2.9 mph4.7 kmh 30.10 in1019.3 mb - 0.00 in0.0 mm 0.00 in0.0 mm
07:12 AM 50.4°F10.2°C 43.2°F6.2°C 76% Calm Calm -- 30.10 in1019.3 mb - 0.00 in0.0 mm 0.00 in0.0 mm
07:07 AM 49.8°F9.9°C 43.0°F6.1°C 77% 0.9 mph W1.4 kmh W 3.4 mph5.5 kmh 30.10 in1019.3 mb - 0.00 in0.0 mm 0.00 in0.0 mm
07:02 AM 49.5°F9.7°C 42.6°F5.9°C 77% 0.2 mph W0.3 kmh W 2.9 mph4.7 kmh 30.10 in1019.3 mb - 0.00 in0.0 mm 0.00 in0.0 mm
06:57 AM 48.9°F9.4°C 42.1°F5.6°C 77% Calm Calm -- 30.10 in1019.3 mb - 0.00 in0.0 mm 0.00 in0.0 mm
06:52 AM 48.6°F9.2°C 41.7°F5.4°C 77% 0.7 mph SW1.1 kmh SW 2.0 mph3.2 kmh 30.10 in1019.3 mb - 0.00 in0.0 mm 0.00 in0.0 mm
06:47 AM 48.2°F9.0°C 41.4°F5.2°C 77% 0.2 mph SW0.3 kmh SW 1.6 mph2.6 kmh 30.10 in1019.3 mb - 0.00 in0.0 mm 0.00 in0.0 mm
06:42 AM 47.5°F8.6°C 40.3°F4.6°C 76% Calm Calm -- 30.10 in1019.3 mb - 0.00 in0.0 mm 0.00 in0.0 mm
06:37 AM 47.3°F8.5°C 40.1°F4.5°C 76% Calm Calm -- 30.10 in1019.3 mb - 0.00 in0.0 mm 0.00 in0.0 mm
06:32 AM 47.1°F8.4°C 39.9°F4.4°C 76% 0.2 mph SW0.3 kmh SW 2.0 mph3.2 kmh 30.10 in1019.3 mb - 0.00 in0.0 mm 0.00 in0.0 mm
06:27 AM 46.9°F8.3°C 39.7°F4.3°C 76% 1.1 mph WSW1.8 kmh WSW 2.2 mph3.5 kmh 30.10 in1019.3 mb - 0.00 in0.0 mm 0.00 in0.0 mm
06:22 AM 46.8°F8.2°C 39.6°F4.2°C 76% Calm Calm -- 30.07 in1018.3 mb - 0.00 in0.0 mm 0.00 in0.0 mm
06:17 AM 46.8°F8.2°C 39.6°F4.2°C 76% Calm Calm -- 30.07 in1018.3 mb - 0.00 in0.0 mm 0.00 in0.0 mm
06:12 AM 46.6°F8.1°C 39.4°F4.1°C 76% Calm Calm -- 30.07 in1018.3 mb - 0.00 in0.0 mm 0.00 in0.0 mm
06:07 AM 46.6°F8.1°C 39.0°F3.9°C 75% Calm Calm -- 30.07 in1018.3 mb - 0.00 in0.0 mm 0.00 in0.0 mm
06:02 AM 46.4°F8.0°C 38.8°F3.8°C 75% Calm Calm -- 30.07 in1018.3 mb - 0.00 in0.0 mm 0.00 in0.0 mm
05:57 AM 46.6°F8.1°C 39.0°F3.9°C 75% Calm Calm -- 30.07 in1018.3 mb - 0.00 in0.0 mm 0.00 in0.0 mm
05:52 AM 46.6°F8.1°C 39.4°F4.1°C 76% Calm Calm -- 30.07 in1018.3 mb - 0.00 in0.0 mm 0.00 in0.0 mm
05:47 AM 46.8°F8.2°C 39.2°F4.0°C 75% Calm Calm -- 30.07 in1018.3 mb - 0.00 in0.0 mm 0.00 in0.0 mm
05:42 AM 46.8°F8.2°C 39.0°F3.9°C 74% Calm Calm -- 30.07 in1018.3 mb - 0.00 in0.0 mm 0.00 in0.0 mm
05:37 AM 46.9°F8.3°C 39.0°F3.9°C 74% Calm Calm -- 30.07 in1018.3 mb - 0.00 in0.0 mm 0.00 in0.0 mm
05:32 AM 47.1°F8.4°C 39.2°F4.0°C 74% Calm Calm -- 30.07 in1018.3 mb - 0.00 in0.0 mm 0.00 in0.0 mm
05:27 AM 47.3°F8.5°C 39.4°F4.1°C 74% Calm Calm -- 30.07 in1018.3 mb - 0.00 in0.0 mm 0.00 in0.0 mm
05:22 AM 47.3°F8.5°C 39.0°F3.9°C 73% Calm Calm -- 30.07 in1018.3 mb - 0.00 in0.0 mm 0.00 in0.0 mm
05:17 AM 47.5°F8.6°C 39.2°F4.0°C 73% 1.1 mph S1.8 kmh S 2.5 mph4.0 kmh 30.07 in1018.3 mb - 0.00 in0.0 mm 0.00 in0.0 mm
05:12 AM 47.7°F8.7°C 39.4°F4.1°C 73% 0.2 mph S0.3 kmh S 1.8 mph2.9 kmh 30.07 in1018.3 mb - 0.00 in0.0 mm 0.00 in0.0 mm
05:07 AM 47.8°F8.8°C 39.6°F4.2°C 73% Calm Calm -- 30.13 in1020.3 mb - 0.00 in0.0 mm 0.00 in0.0 mm
05:02 AM 47.8°F8.8°C 39.6°F4.2°C 73% Calm Calm -- 30.13 in1020.3 mb - 0.00 in0.0 mm 0.00 in0.0 mm
04:57 AM 47.7°F8.7°C 39.4°F4.1°C 73% Calm Calm -- 30.13 in1020.3 mb - 0.00 in0.0 mm 0.00 in0.0 mm
04:52 AM 47.8°F8.8°C 39.6°F4.2°C 73% Calm Calm -- 30.10 in1019.3 mb - 0.00 in0.0 mm 0.00 in0.0 mm
04:47 AM 48.0°F8.9°C 39.4°F4.1°C 72% Calm Calm -- 30.10 in1019.3 mb - 0.00 in0.0 mm 0.00 in0.0 mm
04:42 AM 48.2°F9.0°C 39.6°F4.2°C 72% 0.2 mph SW0.3 kmh SW 1.1 mph1.8 kmh 30.10 in1019.3 mb - 0.00 in0.0 mm 0.00 in0.0 mm
04:37 AM 48.4°F9.1°C 40.1°F4.5°C 73% Calm Calm -- 30.10 in1019.3 mb - 0.00 in0.0 mm 0.00 in0.0 mm
04:32 AM 48.4°F9.1°C 40.1°F4.5°C 73% Calm Calm -- 30.10 in1019.3 mb - 0.00 in0.0 mm 0.00 in0.0 mm
04:27 AM 48.4°F9.1°C 40.1°F4.5°C 73% Calm Calm -- 30.10 in1019.3 mb - 0.00 in0.0 mm 0.00 in0.0 mm
04:22 AM 48.4°F9.1°C 39.7°F4.3°C 72% Calm Calm -- 30.10 in1019.3 mb - 0.00 in0.0 mm 0.00 in0.0 mm
04:17 AM 48.4°F9.1°C 39.7°F4.3°C 72% Calm Calm -- 30.10 in1019.3 mb - 0.00 in0.0 mm 0.00 in0.0 mm
04:12 AM 48.4°F9.1°C 39.7°F4.3°C 72% Calm Calm -- 30.10 in1019.3 mb - 0.00 in0.0 mm 0.00 in0.0 mm
04:07 AM 48.4°F9.1°C 40.1°F4.5°C 73% Calm Calm -- 30.07 in1018.3 mb - 0.00 in0.0 mm 0.00 in0.0 mm
04:02 AM 48.4°F9.1°C 40.1°F4.5°C 73% Calm Calm -- 30.07 in1018.3 mb - 0.00 in0.0 mm 0.00 in0.0 mm
03:57 AM 48.6°F9.2°C 40.3°F4.6°C 73% Calm Calm -- 30.07 in1018.3 mb - 0.00 in0.0 mm 0.00 in0.0 mm
03:52 AM 48.6°F9.2°C 40.3°F4.6°C 73% Calm Calm -- 30.10 in1019.3 mb - 0.00 in0.0 mm 0.00 in0.0 mm
03:47 AM 48.6°F9.2°C 39.6°F4.2°C 71% Calm Calm -- 30.10 in1019.3 mb - 0.00 in0.0 mm 0.00 in0.0 mm
03:42 AM 48.7°F9.3°C 39.7°F4.3°C 71% Calm Calm -- 30.10 in1019.3 mb - 0.00 in0.0 mm 0.00 in0.0 mm
03:37 AM 48.7°F9.3°C 40.1°F4.5°C 72% Calm Calm -- 30.07 in1018.3 mb - 0.00 in0.0 mm 0.00 in0.0 mm
03:32 AM 48.9°F9.4°C 40.3°F4.6°C 72% Calm Calm -- 30.07 in1018.3 mb - 0.00 in0.0 mm 0.00 in0.0 mm
03:27 AM 48.9°F9.4°C 40.3°F4.6°C 72% Calm Calm -- 30.07 in1018.3 mb - 0.00 in0.0 mm 0.00 in0.0 mm
03:22 AM 48.9°F9.4°C 40.6°F4.8°C 73% Calm Calm -- 30.10 in1019.3 mb - 0.00 in0.0 mm 0.00 in0.0 mm
03:17 AM 49.1°F9.5°C 40.5°F4.7°C 72% Calm Calm -- 30.10 in1019.3 mb - 0.00 in0.0 mm 0.00 in0.0 mm
03:12 AM 49.1°F9.5°C 39.7°F4.3°C 70% Calm Calm -- 30.10 in1019.3 mb - 0.00 in0.0 mm 0.00 in0.0 mm
03:07 AM 49.1°F9.5°C 39.7°F4.3°C 70% Calm Calm -- 30.10 in1019.3 mb - 0.00 in0.0 mm 0.00 in0.0 mm
03:02 AM 49.3°F9.6°C 39.9°F4.4°C 70% Calm Calm -- 30.10 in1019.3 mb - 0.00 in0.0 mm 0.00 in0.0 mm
02:57 AM 49.5°F9.7°C 39.7°F4.3°C 69% Calm Calm -- 30.10 in1019.3 mb - 0.00 in0.0 mm 0.00 in0.0 mm
02:52 AM 49.6°F9.8°C 39.9°F4.4°C 69% Calm Calm -- 30.10 in1019.3 mb - 0.00 in0.0 mm 0.00 in0.0 mm
02:47 AM 49.6°F9.8°C 39.9°F4.4°C 69% Calm Calm -- 30.10 in1019.3 mb - 0.00 in0.0 mm 0.00 in0.0 mm
02:42 AM 49.8°F9.9°C 39.7°F4.3°C 68% Calm Calm -- 30.10 in1019.3 mb - 0.00 in0.0 mm 0.00 in0.0 mm
02:37 AM 50.0°F10.0°C 40.3°F4.6°C 69% Calm Calm -- 30.10 in1019.3 mb - 0.00 in0.0 mm 0.00 in0.0 mm
02:32 AM 50.0°F10.0°C 39.9°F4.4°C 68% Calm Calm -- 30.10 in1019.3 mb - 0.00 in0.0 mm 0.00 in0.0 mm
02:27 AM 50.2°F10.1°C 40.1°F4.5°C 68% Calm Calm -- 30.10 in1019.3 mb - 0.00 in0.0 mm 0.00 in0.0 mm
02:22 AM 50.4°F10.2°C 39.9°F4.4°C 67% Calm Calm -- 30.10 in1019.3 mb - 0.00 in0.0 mm 0.00 in0.0 mm
02:17 AM 50.4°F10.2°C 39.9°F4.4°C 67% Calm Calm -- 30.10 in1019.3 mb - 0.00 in0.0 mm 0.00 in0.0 mm
02:12 AM 50.5°F10.3°C 40.1°F4.5°C 67% Calm Calm -- 30.10 in1019.3 mb - 0.00 in0.0 mm 0.00 in0.0 mm
02:07 AM 50.7°F10.4°C 40.1°F4.5°C 67% Calm Calm -- 30.10 in1019.3 mb - 0.00 in0.0 mm 0.00 in0.0 mm
02:02 AM 50.9°F10.5°C 40.3°F4.6°C 67% Calm Calm -- 30.10 in1019.3 mb - 0.00 in0.0 mm 0.00 in0.0 mm
01:57 AM 51.1°F10.6°C 40.5°F4.7°C 67% Calm Calm -- 30.10 in1019.3 mb - 0.00 in0.0 mm 0.00 in0.0 mm
01:52 AM 51.4°F10.8°C 40.5°F4.7°C 66% Calm Calm -- 30.13 in1020.3 mb - 0.00 in0.0 mm 0.00 in0.0 mm
01:47 AM 51.6°F10.9°C 40.6°F4.8°C 66% Calm Calm -- 30.13 in1020.3 mb - 0.00 in0.0 mm 0.00 in0.0 mm
01:42 AM 52.0°F11.1°C 40.6°F4.8°C 65% Calm Calm -- 30.13 in1020.3 mb - 0.00 in0.0 mm 0.00 in0.0 mm
01:37 AM 52.0°F11.1°C 40.3°F4.6°C 64% Calm Calm -- 30.13 in1020.3 mb - 0.00 in0.0 mm 0.00 in0.0 mm
01:32 AM 52.2°F11.2°C 40.5°F4.7°C 64% Calm Calm -- 30.13 in1020.3 mb - 0.00 in0.0 mm 0.00 in0.0 mm
01:27 AM 52.3°F11.3°C 40.5°F4.7°C 64% Calm Calm -- 30.13 in1020.3 mb - 0.00 in0.0 mm 0.00 in0.0 mm
01:22 AM 52.5°F11.4°C 40.6°F4.8°C 64% Calm Calm -- 30.13 in1020.3 mb - 0.00 in0.0 mm 0.00 in0.0 mm
01:17 AM 52.7°F11.5°C 40.8°F4.9°C 64% Calm Calm -- 30.13 in1020.3 mb - 0.00 in0.0 mm 0.00 in0.0 mm
01:12 AM 52.9°F11.6°C 40.6°F4.8°C 63% Calm Calm -- 30.13 in1020.3 mb - 0.00 in0.0 mm 0.00 in0.0 mm
01:07 AM 53.1°F11.7°C 40.8°F4.9°C 63% Calm Calm -- 30.13 in1020.3 mb - 0.00 in0.0 mm 0.00 in0.0 mm
01:02 AM 53.2°F11.8°C 41.0°F5.0°C 63% Calm Calm -- 30.13 in1020.3 mb - 0.00 in0.0 mm 0.00 in0.0 mm
12:57 AM 53.2°F11.8°C 41.0°F5.0°C 63% Calm Calm -- 30.13 in1020.3 mb - 0.00 in0.0 mm 0.00 in0.0 mm
12:52 AM 53.4°F11.9°C 41.2°F5.1°C 63% 0.7 mph S1.1 kmh S 3.1 mph5.0 kmh 30.13 in1020.3 mb - 0.00 in0.0 mm 0.00 in0.0 mm
12:47 AM 53.6°F12.0°C 41.4°F5.2°C 63% Calm Calm -- 30.13 in1020.3 mb - 0.00 in0.0 mm 0.00 in0.0 mm
12:42 AM 53.8°F12.1°C 41.5°F5.3°C 63% 0.7 mph S1.1 kmh S 1.8 mph2.9 kmh 30.13 in1020.3 mb - 0.00 in0.0 mm 0.00 in0.0 mm
12:37 AM 53.8°F12.1°C 41.5°F5.3°C 63% 0.2 mph NNW0.3 kmh NNW 1.6 mph2.6 kmh 30.13 in1020.3 mb - 0.00 in0.0 mm 0.00 in0.0 mm
12:32 AM 53.8°F12.1°C 41.0°F5.0°C 62% Calm Calm -- 30.13 in1020.3 mb - 0.00 in0.0 mm 0.00 in0.0 mm
12:27 AM 53.8°F12.1°C 41.0°F5.0°C 62% Calm Calm -- 30.13 in1020.3 mb - 0.00 in0.0 mm 0.00 in0.0 mm
12:22 AM 54.0°F12.2°C 40.5°F4.7°C 60% Calm Calm -- 30.13 in1020.3 mb - 0.00 in0.0 mm 0.00 in0.0 mm
12:17 AM 54.3°F12.4°C 40.8°F4.9°C 60% Calm Calm -- 30.13 in1020.3 mb - 0.00 in0.0 mm 0.00 in0.0 mm
12:12 AM 54.3°F12.4°C 40.8°F4.9°C 60% Calm Calm -- 30.13 in1020.3 mb - 0.00 in0.0 mm 0.00 in0.0 mm
12:07 AM 54.5°F12.5°C 40.5°F4.7°C 59% Calm Calm -- 30.13 in1020.3 mb - 0.00 in0.0 mm 0.00 in0.0 mm
12:02 AM 54.7°F12.6°C 40.6°F4.8°C 59% Calm Calm -- 30.13 in1020.3 mb - 0.00 in0.0 mm 0.00 in0.0 mm